Fiorela — D5MK2 — position and weather

sailwx.info

Track history (hours):
 
Tides and Currents Weather Stations Pressure Air Temp Water Temp Dewpoint Dewpoint Depression Visibility Wind Speed Wind Dir Waves Ship Positions

Fiorela

Last reported at 2017-Sep-20 20:15 UTC. Time now 2017-Sep-23 04:08 UTC.
Position N 41°26' E 029°01'.

Length 229 m; draft 12.6 m.

Type: Cargo ship. MMSI: 636017716.

Date/timePositionNaut miles runAvg speedWind from/ knotsBaromVisibWave heightAir tempDewpointWater temp
2017-Sep-20 20:15N 41°26' E 029°01'0 0.5
2017-Sep-20 19:45N 41°26' E 029°01'0 0.5
2017-Sep-20 19:30N 41°26' E 029°01'0 0.7
2017-Sep-20 18:53N 41°25' E 029°02'0 0.8
2017-Sep-20 18:18N 41°25' E 029°03'1 1.0
2017-Sep-20 17:23N 41°25' E 029°04'0 1.0
2017-Sep-20 16:55N 41°25' E 029°04'2 1.5
2017-Sep-20 15:18N 41°26' E 029°07'1511.2
2017-Sep-20 13:59N 41°39' E 029°16'612.1
2017-Sep-20 13:30N 41°44' E 029°18'612.1
2017-Sep-20 13:00N 41°50' E 029°21'712.0
2017-Sep-20 12:28N 41°56' E 029°23'511.9
2017-Sep-20 12:00N 42°02' E 029°25'611.8
2017-Sep-20 11:30N 42°07' E 029°27'611.8
2017-Sep-20 11:00N 42°13' E 029°29'611.9
2017-Sep-20 10:30N 42°19' E 029°31'812.0
2017-Sep-20 09:51N 42°26' E 029°34'611.9
2017-Sep-20 09:22N 42°32' E 029°37'511.8
2017-Sep-20 08:59N 42°36' E 029°39'811.9
2017-Sep-20 08:21N 42°43' E 029°41'413.1
2017-Sep-20 08:00N 42°48' E 029°43'713.4
2017-Sep-20 07:31N 42°54' E 029°46'713.5
2017-Sep-20 06:59N 43°01' E 029°48'3312.8
2017-Sep-20 04:25N 43°32' E 030°02'3312.4
2017-Sep-20 01:46N 44°04' E 030°14'312.2
2017-Sep-20 01:30N 44°07' E 030°16'612.1
2017-Sep-20 00:58N 44°13' E 030°18'612.1
2017-Sep-20 00:30N 44°19' E 030°20'612.1
2017-Sep-20 00:00N 44°24' E 030°22'612.2
2017-Sep-19 23:30N 44°30' E 030°25'612.2
2017-Sep-19 23:00N 44°36' E 030°27'612.1
2017-Sep-19 22:29N 44°42' E 030°30'612.0
2017-Sep-19 22:00N 44°48' E 030°32'612.1
2017-Sep-19 21:28N 44°54' E 030°34'7612.4
2017-Sep-19 15:23N 46°07' E 031°04'1111.6
2017-Sep-19 14:25N 46°15' E 030°54'512.5
2017-Sep-19 13:59N 46°20' E 030°55'612.4
2017-Sep-19 13:31N 46°26' E 030°55'611.6
2017-Sep-19 13:01N 46°32' E 030°55'5 9.2
2017-Sep-19 12:30N 46°34' E 031°02'4 8.1
2017-Sep-19 12:00N 46°35' E 031°07'610.2
2017-Sep-19 11:27N 46°35' E 031°15'1 0.1
2017-Sep-19 00:12N 46°34' E 031°16'0 0.0
2017-Sep-19 00:00N 46°34' E 031°16'0 0.0
2017-Sep-18 20:54N 46°34' E 031°16'0 0.0
2017-Sep-18 20:30N 46°34' E 031°16'0 0.0
2017-Sep-18 20:00N 46°34' E 031°16'0 0.1
2017-Sep-18 17:36N 46°34' E 031°16'0 0.2
2017-Sep-18 17:24N 46°34' E 031°16'0 0.1
2017-Sep-18 17:00N 46°34' E 031°16'0 0.0
2017-Sep-18 16:27N 46°34' E 031°16'0 0.0
2017-Sep-18 15:57N 46°34' E 031°16'0 0.0
2017-Sep-18 15:27N 46°34' E 031°16'0 0.1
2017-Sep-18 14:27N 46°35' E 031°16'0 0.0
2017-Sep-18 14:00N 46°35' E 031°16'0 0.0
2017-Sep-18 13:24N 46°35' E 031°16'0 0.0
2017-Sep-18 13:00N 46°34' E 031°16'0 0.0
2017-Sep-18 12:24N 46°35' E 031°16'0 0.0
2017-Sep-18 12:00N 46°35' E 031°16'0 0.0
2017-Sep-18 11:27N 46°35' E 031°16'0 0.0
2017-Sep-18 10:45N 46°35' E 031°16'0 0.0
2017-Sep-18 10:30N 46°35' E 031°16'0 0.0
2017-Sep-18 10:00N 46°35' E 031°16'0 0.0
2017-Sep-18 09:30N 46°35' E 031°16'0 0.1
2017-Sep-18 09:00N 46°34' E 031°16'0 0.0
2017-Sep-18 08:27N 46°34' E 031°16'0 0.0
2017-Sep-18 08:00N 46°34' E 031°16'0 0.1
2017-Sep-18 07:03N 46°35' E 031°16'0 0.1
2017-Sep-18 06:54N 46°35' E 031°16'0 0.0
2017-Sep-18 06:30N 46°35' E 031°16'0 0.0
2017-Sep-18 06:00N 46°34' E 031°16'0 0.0
2017-Sep-18 05:30N 46°34' E 031°16'0 0.0
2017-Sep-18 05:00N 46°34' E 031°16'0 0.0
2017-Sep-18 04:30N 46°34' E 031°16'0 0.1
2017-Sep-18 04:00N 46°34' E 031°16'0 0.0
2017-Sep-18 03:30N 46°34' E 031°16'0 0.0
2017-Sep-18 03:00N 46°34' E 031°16'0 0.0
2017-Sep-18 02:30N 46°34' E 031°16'0 0.1
2017-Sep-18 02:00N 46°34' E 031°16'0 0.1
2017-Sep-18 01:30N 46°34' E 031°16'0 0.0
2017-Sep-18 01:00N 46°35' E 031°16'0 0.0
2017-Sep-18 00:30N 46°35' E 031°16'0 0.0
2017-Sep-18 00:00N 46°35' E 031°16'0 0.1
2017-Sep-17 23:30N 46°35' E 031°16'0 0.0
2017-Sep-17 23:00N 46°35' E 031°16'0 0.0
2017-Sep-17 22:30N 46°35' E 031°16'0 0.0
2017-Sep-17 22:00N 46°35' E 031°16'0 0.1
2017-Sep-17 21:30N 46°35' E 031°16'0 0.0
2017-Sep-17 21:00N 46°35' E 031°16'0 0.0
2017-Sep-17 20:30N 46°35' E 031°16'0 0.1
2017-Sep-17 20:00N 46°35' E 031°16'0 0.0
2017-Sep-17 19:30N 46°35' E 031°16'0 0.0
2017-Sep-17 19:00N 46°35' E 031°16'0 0.0
2017-Sep-17 18:28N 46°35' E 031°16'0 0.0
2017-Sep-17 17:58N 46°35' E 031°16'0 0.0
2017-Sep-17 17:28N 46°35' E 031°16'0 0.0
2017-Sep-17 16:58N 46°35' E 031°16'0 0.0
2017-Sep-17 16:28N 46°35' E 031°16'0 0.0
2017-Sep-17 15:58N 46°35' E 031°16'0 0.0
2017-Sep-17 15:28N 46°35' E 031°16'0 0.0
2017-Sep-17 14:52N 46°34' E 031°16'0 0.0
2017-Sep-17 14:19N 46°34' E 031°16'0 0.0
2017-Sep-17 13:52N 46°34' E 031°16'0 0.0
2017-Sep-17 13:25N 46°34' E 031°16'0 0.0
2017-Sep-17 12:58N 46°34' E 031°16'0 0.0
2017-Sep-17 12:28N 46°34' E 031°16'0 0.0
2017-Sep-17 11:58N 46°35' E 031°16'0 0.1
2017-Sep-17 11:28N 46°35' E 031°16'0 0.1
2017-Sep-17 10:58N 46°35' E 031°16'0 0.1
2017-Sep-17 10:28N 46°35' E 031°16'0 0.0
2017-Sep-17 09:58N 46°35' E 031°16'0 0.0
2017-Sep-17 09:28N 46°35' E 031°16'0 0.0
2017-Sep-17 08:58N 46°35' E 031°16'0 0.0
2017-Sep-17 08:28N 46°35' E 031°16'0 0.1
2017-Sep-17 07:58N 46°35' E 031°16'0 0.1
2017-Sep-17 07:28N 46°34' E 031°16'0 0.1
2017-Sep-17 06:58N 46°34' E 031°16'0 0.0
2017-Sep-17 06:28N 46°34' E 031°16'0 0.0
2017-Sep-17 05:58N 46°34' E 031°16'0 0.0
2017-Sep-17 05:28N 46°34' E 031°16'0 0.0
2017-Sep-17 04:49N 46°34' E 031°16'0 0.0
2017-Sep-17 04:19N 46°34' E 031°16'0 0.0
2017-Sep-17 03:58N 46°34' E 031°16'0 0.0
2017-Sep-17 03:28N 46°34' E 031°16'0 0.0
2017-Sep-17 02:58N 46°34' E 031°16'0 0.0
2017-Sep-17 02:28N 46°34' E 031°16'0 0.0
2017-Sep-17 01:55N 46°34' E 031°16'0 0.0
2017-Sep-17 01:28N 46°34' E 031°16'0 0.0
2017-Sep-17 00:58N 46°34' E 031°16'0 0.0
2017-Sep-17 00:28N 46°34' E 031°16'0 0.0
2017-Sep-16 23:55N 46°34' E 031°16'0 0.0
2017-Sep-16 23:25N 46°34' E 031°16'0 0.0
2017-Sep-16 22:55N 46°34' E 031°16'0 0.0
2017-Sep-16 22:25N 46°34' E 031°16'0 0.0
2017-Sep-16 21:55N 46°34' E 031°16'0 0.0
2017-Sep-16 21:25N 46°34' E 031°16'0 0.0
2017-Sep-16 20:58N 46°34' E 031°16'0 0.0
2017-Sep-16 19:53N 46°34' E 031°16'0 0.0
2017-Sep-16 19:24N 46°34' E 031°16'0 0.0
2017-Sep-16 19:00N 46°34' E 031°16'0 0.0
2017-Sep-16 15:30N 46°35' E 031°16'0 0.0
2017-Sep-16 14:59N 46°35' E 031°16'0 0.0
2017-Sep-16 14:30N 46°35' E 031°16'0 0.0
2017-Sep-16 13:59N 46°35' E 031°16'0 0.0
2017-Sep-16 13:27N 46°35' E 031°16'0 0.0
2017-Sep-16 12:57N 46°35' E 031°16'0 0.0
2017-Sep-16 11:36N 46°35' E 031°16'0 0.1
2017-Sep-16 11:29N 46°35' E 031°16'0 0.0
2017-Sep-16 10:53N 46°35' E 031°16'0 0.0
2017-Sep-16 10:30N 46°35' E 031°16'0 0.0
2017-Sep-16 09:56N 46°35' E 031°16'0 0.0
2017-Sep-16 08:35N 46°34' E 031°16'0 0.0
2017-Sep-16 06:51N 46°34' E 031°16'0 0.0
2017-Sep-16 06:21N 46°34' E 031°16'0 0.0
2017-Sep-16 06:00N 46°34' E 031°16'0 0.0
2017-Sep-16 03:06N 46°34' E 031°16'0 0.0
2017-Sep-16 02:54N 46°34' E 031°16'0 0.1
2017-Sep-16 02:29N 46°34' E 031°16'0 0.0
2017-Sep-16 02:00N 46°34' E 031°16'0 0.1
2017-Sep-16 00:42N 46°34' E 031°16'0 0.1
2017-Sep-16 00:29N 46°34' E 031°16'0 0.1
2017-Sep-15 23:53N 46°34' E 031°16'0 0.0
2017-Sep-15 21:53N 46°34' E 031°16'0 0.0
2017-Sep-15 17:51N 46°34' E 031°16'0 0.1
2017-Sep-15 17:29N 46°34' E 031°16'0 0.1
2017-Sep-15 16:59N 46°34' E 031°16'0 0.7
2017-Sep-15 16:30N 46°34' E 031°17'3 6.7
2017-Sep-15 16:00N 46°35' E 031°22'5 9.9
2017-Sep-15 15:30N 46°36' E 031°29'4 9.0
2017-Sep-15 15:01N 46°35' E 031°35'510.3
2017-Sep-15 14:30N 46°36' E 031°43'510.1
2017-Sep-15 14:01N 46°36' E 031°50'5 9.5
2017-Sep-15 13:30N 46°39' E 031°56'5 9.6
2017-Sep-15 13:01N 46°44' E 031°56'5 9.3
2017-Sep-15 12:31N 46°48' E 031°54'510.3
2017-Sep-15 12:01N 46°52' E 031°59'4 8.2
2017-Sep-15 11:31N 46°56' E 032°01'1 2.2
2017-Sep-15 11:01N 46°57' E 031°60'0 0.3
2017-Sep-15 10:28N 46°57' E 031°60'0 0.0
2017-Sep-15 09:58N 46°57' E 031°60'0 0.0
2017-Sep-15 09:28N 46°57' E 031°60'0 0.0
2017-Sep-15 08:58N 46°57' E 031°60'0 0.0
2017-Sep-15 08:28N 46°57' E 031°60'0 0.0
2017-Sep-15 07:58N 46°57' E 031°60'0 0.0
2017-Sep-15 07:28N 46°57' E 031°60'0 0.0
2017-Sep-15 06:58N 46°57' E 031°60'0 0.0
2017-Sep-15 06:28N 46°57' E 031°60'0 0.0
2017-Sep-15 05:58N 46°57' E 031°60'0 0.0
2017-Sep-15 05:28N 46°57' E 031°60'0 0.0
2017-Sep-15 04:58N 46°57' E 031°60'0 0.0
2017-Sep-15 04:28N 46°57' E 031°60'0 0.0
2017-Sep-15 03:58N 46°57' E 031°60'0 0.0
2017-Sep-15 03:28N 46°57' E 031°60'0 0.0
2017-Sep-15 02:58N 46°57' E 031°60'0 0.0
2017-Sep-15 02:28N 46°57' E 031°60'0 0.0
2017-Sep-15 01:58N 46°57' E 031°60'0 0.0
2017-Sep-15 01:28N 46°57' E 031°60'0 0.0
2017-Sep-15 00:58N 46°57' E 031°60'0 0.0
2017-Sep-15 00:28N 46°57' E 031°60'0 0.0
2017-Sep-14 23:58N 46°57' E 031°60'0 0.0
2017-Sep-14 23:28N 46°57' E 031°60'0 0.0
2017-Sep-14 22:58N 46°57' E 031°60'0 0.0
2017-Sep-14 22:28N 46°57' E 031°60'0 0.0
2017-Sep-14 21:58N 46°57' E 031°60'0 0.0
2017-Sep-14 21:28N 46°57' E 031°60'0 0.0
2017-Sep-14 20:55N 46°57' E 031°60'0 0.0
2017-Sep-14 20:28N 46°57' E 031°60'0 0.0
2017-Sep-14 19:58N 46°57' E 031°60'0 0.0
2017-Sep-14 19:28N 46°57' E 031°60'0 0.0
2017-Sep-14 18:58N 46°57' E 031°60'0 0.0
2017-Sep-14 18:28N 46°57' E 031°60'0 0.0
2017-Sep-14 17:58N 46°57' E 031°60'0 0.0
2017-Sep-14 17:25N 46°57' E 031°60'0 0.0
2017-Sep-14 16:58N 46°57' E 031°60'0 0.0
2017-Sep-14 16:28N 46°57' E 031°60'0 0.0
2017-Sep-14 15:58N 46°57' E 031°60'0 0.0
2017-Sep-14 15:28N 46°57' E 031°60'0 0.0
2017-Sep-14 14:58N 46°57' E 031°60'0 0.0
2017-Sep-14 14:28N 46°57' E 031°60'0 0.0
2017-Sep-14 13:58N 46°57' E 031°60'0 0.0
2017-Sep-14 13:28N 46°57' E 031°60'0 0.0
2017-Sep-14 12:58N 46°57' E 031°60'0 0.0
2017-Sep-14 12:28N 46°57' E 031°60'0 0.0
2017-Sep-14 11:58N 46°57' E 031°60'0 0.0
2017-Sep-14 11:28N 46°57' E 031°60'0 0.0
2017-Sep-14 10:52N 46°57' E 031°60'0 0.0
2017-Sep-14 10:25N 46°57' E 031°60'0 0.0
2017-Sep-14 09:58N 46°57' E 031°60'0 0.0
2017-Sep-14 09:28N 46°57' E 031°60'0 0.0
2017-Sep-14 08:55N 46°57' E 031°60'0 0.0
2017-Sep-14 08:28N 46°57' E 031°60'0 0.0
2017-Sep-14 07:58N 46°57' E 031°60'0 0.0
2017-Sep-14 07:28N 46°57' E 031°60'0 0.0
2017-Sep-14 06:58N 46°57' E 031°60'0 0.0
2017-Sep-14 06:28N 46°57' E 031°60'0 0.0
2017-Sep-14 05:58N 46°57' E 031°60'0 0.0
2017-Sep-14 05:28N 46°57' E 031°60'0 0.0
2017-Sep-14 04:58N 46°57' E 031°60'0 0.0
2017-Sep-14 04:28N 46°57' E 031°60'0 0.0
2017-Sep-14 03:58N 46°57' E 031°60'0 0.0
2017-Sep-14 03:25N 46°57' E 031°60'0 0.0
2017-Sep-14 02:58N 46°57' E 031°60'0 0.0
2017-Sep-14 02:28N 46°57' E 031°60'0 0.0
2017-Sep-14 01:58N 46°57' E 031°60'0 0.0
2017-Sep-14 01:28N 46°57' E 031°60'0 0.0
2017-Sep-14 00:58N 46°57' E 031°60'0 0.0
2017-Sep-14 00:28N 46°57' E 031°60'0 0.0
2017-Sep-13 23:58N 46°57' E 031°60'0 0.0
2017-Sep-13 23:28N 46°57' E 031°60'0 0.0
2017-Sep-13 22:58N 46°57' E 031°60'0 0.0
2017-Sep-13 22:28N 46°57' E 031°60'0 0.0
2017-Sep-13 21:58N 46°57' E 031°60'0 0.0
2017-Sep-13 21:28N 46°57' E 031°60'0 0.0
2017-Sep-13 20:58N 46°57' E 031°60'0 0.0
2017-Sep-13 20:28N 46°57' E 031°60'0 0.0
2017-Sep-13 19:58N 46°57' E 031°60'0 0.0
2017-Sep-13 19:28N 46°57' E 031°60'0 0.0
2017-Sep-13 18:55N 46°57' E 031°60'0 0.0
2017-Sep-13 18:28N 46°57' E 031°60'0 0.0
2017-Sep-13 17:58N 46°57' E 031°60'0 0.0
2017-Sep-13 17:28N 46°57' E 031°60'0 0.0
2017-Sep-13 16:58N 46°57' E 031°60'0 0.0
2017-Sep-13 16:28N 46°57' E 031°60'0 0.0
2017-Sep-13 15:55N 46°57' E 031°60'0 0.0
2017-Sep-13 15:28N 46°57' E 031°60'0 0.0
2017-Sep-13 14:58N 46°57' E 031°60'0 0.0
2017-Sep-13 14:28N 46°57' E 031°60'0 0.0
2017-Sep-13 13:58N 46°57' E 031°60'0 0.0
2017-Sep-13 13:28N 46°57' E 031°60'0 0.0
2017-Sep-13 12:58N 46°57' E 031°60'0 0.0
2017-Sep-13 12:28N 46°57' E 031°60'0 0.0
2017-Sep-13 11:58N 46°57' E 031°60'0 0.0
2017-Sep-13 11:28N 46°57' E 031°60'0 0.0
2017-Sep-13 10:58N 46°57' E 031°60'0 0.0
2017-Sep-13 10:28N 46°57' E 031°60'0 0.0
2017-Sep-13 09:58N 46°57' E 031°60'0 0.0
2017-Sep-13 09:25N 46°57' E 031°60'0 0.0
2017-Sep-13 08:58N 46°57' E 031°60'0 0.0
2017-Sep-13 08:28N 46°57' E 031°60'0 0.0
2017-Sep-13 07:58N 46°57' E 031°60'0 0.0
2017-Sep-13 07:28N 46°57' E 031°60'0 0.0
2017-Sep-13 06:58N 46°57' E 031°60'0 0.0
2017-Sep-13 06:28N 46°57' E 031°60'0 0.0
2017-Sep-13 05:58N 46°57' E 031°60'0 0.0
2017-Sep-13 05:28N 46°57' E 031°60'0 0.0
2017-Sep-13 04:58N 46°57' E 031°60'0 0.0
2017-Sep-13 04:28N 46°57' E 031°60'0 0.0
2017-Sep-13 03:58N 46°57' E 031°60'0 0.0
2017-Sep-13 03:28N 46°57' E 031°60'0 0.0
2017-Sep-13 02:58N 46°57' E 031°60'0 0.0
2017-Sep-13 02:28N 46°57' E 031°60'0 0.0
2017-Sep-13 01:58N 46°57' E 031°60'0 0.0
2017-Sep-13 01:28N 46°57' E 031°60'0 0.0
2017-Sep-13 00:58N 46°57' E 031°60'0 0.0
2017-Sep-13 00:28N 46°57' E 031°60'0 0.0
2017-Sep-12 23:58N 46°57' E 031°60'0 0.0
2017-Sep-12 23:28N 46°57' E 031°60'0 0.0
2017-Sep-12 22:58N 46°57' E 031°60'0 0.0
2017-Sep-12 22:28N 46°57' E 031°60'0 0.0
2017-Sep-12 21:58N 46°57' E 031°60'0 0.0
2017-Sep-12 21:28N 46°57' E 031°60'0 0.0
2017-Sep-12 20:58N 46°57' E 031°60'0 0.0
2017-Sep-12 20:28N 46°57' E 031°60'0 0.0
2017-Sep-12 19:58N 46°57' E 031°60'0 0.0
2017-Sep-12 19:28N 46°57' E 031°60'0 0.0
2017-Sep-12 18:58N 46°57' E 031°60'0 0.0
2017-Sep-12 18:28N 46°57' E 031°60'0 0.0
2017-Sep-12 17:58N 46°57' E 031°60'0 0.0
2017-Sep-12 17:28N 46°57' E 031°60'0 0.0
2017-Sep-12 16:58N 46°57' E 031°60'0 0.0
2017-Sep-12 16:28N 46°57' E 031°60'0 0.0
2017-Sep-12 15:58N 46°57' E 031°60'0 0.0
2017-Sep-12 15:28N 46°57' E 031°60'0 0.0
2017-Sep-12 14:58N 46°57' E 031°60'0 0.0
2017-Sep-12 14:28N 46°57' E 031°60'0 0.0
2017-Sep-12 13:58N 46°57' E 031°60'0 0.0
2017-Sep-12 13:28N 46°57' E 031°60'0 0.0
2017-Sep-12 12:58N 46°57' E 031°60'0 0.0
2017-Sep-12 12:28N 46°57' E 031°60'0 0.0
2017-Sep-12 11:58N 46°57' E 031°60'0 0.0
2017-Sep-12 11:28N 46°57' E 031°60'0 0.0
2017-Sep-12 10:58N 46°57' E 031°60'0 0.0
2017-Sep-12 10:28N 46°57' E 031°60'0 0.0
2017-Sep-12 09:58N 46°57' E 031°60'0 0.0
2017-Sep-12 09:28N 46°57' E 031°60'0 0.0
2017-Sep-12 08:58N 46°57' E 031°60'0 0.0
2017-Sep-12 08:28N 46°57' E 031°60'0 0.0
2017-Sep-12 07:58N 46°57' E 031°60'0 0.0
2017-Sep-12 07:28N 46°57' E 031°60'0 0.0
2017-Sep-12 06:58N 46°57' E 031°60'0 0.0
2017-Sep-12 06:28N 46°57' E 031°60'0 0.0
2017-Sep-12 05:58N 46°57' E 031°60'0 0.0
2017-Sep-12 05:28N 46°57' E 031°60'0 0.0
2017-Sep-12 04:58N 46°57' E 031°60'0 0.0
2017-Sep-12 04:28N 46°57' E 031°60'0 0.0
2017-Sep-12 03:58N 46°57' E 031°60'0 0.0
2017-Sep-12 03:28N 46°57' E 031°60'0 0.0
2017-Sep-12 02:58N 46°57' E 031°60'0 0.0
2017-Sep-12 02:28N 46°57' E 031°60'0 0.0
2017-Sep-12 01:58N 46°57' E 031°60'0 0.0
2017-Sep-12 01:28N 46°57' E 031°60'0 0.0
2017-Sep-12 00:58N 46°57' E 031°60'0 0.0
2017-Sep-12 00:28N 46°57' E 031°60'0 0.0
2017-Sep-11 23:58N 46°57' E 031°60'0 0.0
2017-Sep-11 23:28N 46°57' E 031°60'0 0.0
2017-Sep-11 22:58N 46°57' E 031°60'0 0.0
2017-Sep-11 22:28N 46°57' E 031°60'0 0.0
2017-Sep-11 21:58N 46°57' E 031°60'0 0.0
2017-Sep-11 21:28N 46°57' E 031°60'0 0.0
2017-Sep-11 20:58N 46°57' E 031°60'0 0.0
2017-Sep-11 20:28N 46°57' E 031°60'0 0.0
2017-Sep-11 19:58N 46°57' E 031°60'0 0.0
2017-Sep-11 19:28N 46°57' E 031°60'0 0.0
2017-Sep-11 18:58N 46°57' E 031°60'0 0.0
2017-Sep-11 18:28N 46°57' E 031°60'0 0.0
2017-Sep-11 17:58N 46°57' E 031°60'0 0.0
2017-Sep-11 17:28N 46°57' E 031°60'0 0.0
2017-Sep-11 16:55N 46°57' E 031°60'0 0.0
2017-Sep-11 16:28N 46°57' E 031°60'0 0.0
2017-Sep-11 15:58N 46°57' E 031°60'0 0.0
2017-Sep-11 15:28N 46°57' E 031°60'0 0.0
2017-Sep-11 14:58N 46°57' E 031°60'0 0.0
2017-Sep-11 14:28N 46°57' E 031°60'0 0.0
2017-Sep-11 13:58N 46°57' E 031°60'0 0.0
2017-Sep-11 13:25N 46°57' E 031°60'0 0.0
2017-Sep-11 12:58N 46°57' E 031°60'0 0.0
2017-Sep-11 12:28N 46°57' E 031°60'0 0.0
2017-Sep-11 11:58N 46°57' E 031°60'0 0.0
2017-Sep-11 11:28N 46°57' E 031°60'0 0.0
2017-Sep-11 10:58N 46°57' E 031°60'0 0.0
2017-Sep-11 10:28N 46°57' E 031°60'0 0.0
2017-Sep-11 09:58N 46°57' E 031°60'0 0.0
2017-Sep-11 09:28N 46°57' E 031°60'0 0.0
2017-Sep-11 08:58N 46°57' E 031°60'0 0.0
2017-Sep-11 08:28N 46°57' E 031°60'0 0.0
2017-Sep-11 07:58N 46°57' E 031°60'0 0.0
2017-Sep-11 07:28N 46°57' E 031°60'0 0.0
2017-Sep-11 06:58N 46°57' E 031°60'0 0.0
2017-Sep-11 06:28N 46°57' E 031°60'0 0.0
2017-Sep-11 05:58N 46°57' E 031°60'0 0.0
2017-Sep-11 05:28N 46°57' E 031°60'0 0.0
2017-Sep-11 04:58N 46°57' E 031°60'0 0.0
2017-Sep-11 04:28N 46°57' E 031°60'0 0.0
2017-Sep-11 03:58N 46°57' E 031°60'0 0.0
2017-Sep-11 03:28N 46°57' E 031°60'0 0.0
2017-Sep-11 02:58N 46°57' E 031°60'0 0.0
2017-Sep-11 02:28N 46°57' E 031°60'0 0.0
2017-Sep-11 01:58N 46°57' E 031°60'0 0.0
2017-Sep-11 01:28N 46°57' E 031°60'0 0.0
2017-Sep-11 00:58N 46°57' E 031°60'0 0.0
2017-Sep-11 00:28N 46°57' E 031°60'0 0.0
2017-Sep-10 23:58N 46°57' E 031°60'0 0.0
2017-Sep-10 23:28N 46°57' E 031°60'0 0.0
2017-Sep-10 22:58N 46°57' E 031°60'0 0.0
2017-Sep-10 22:28N 46°57' E 031°60'0 0.0
2017-Sep-10 21:58N 46°57' E 031°60'0 0.0
2017-Sep-10 21:28N 46°57' E 031°60'0 0.0
2017-Sep-10 20:58N 46°57' E 031°60'0 0.0
2017-Sep-10 20:28N 46°57' E 031°60'  
Track history (hours):
 
Tides and Currents Weather Stations Pressure Air Temp Water Temp Dewpoint Dewpoint Depression Visibility Wind Speed Wind Dir Waves Ship Positions

Fiorela

Last reported at 2017-Sep-20 20:15 UTC. Time now 2017-Sep-23 04:08 UTC.
Position N 41°26' E 029°01'.

Length 229 m; draft 12.6 m.

Type: Cargo ship. MMSI: 636017716.

Date/timePositionNaut miles runAvg speedWind from/ knotsBaromVisibWave heightAir tempDewpointWater temp
2017-Sep-20 20:15N 41°26' E 029°01'0 0.5
2017-Sep-20 19:45N 41°26' E 029°01'0 0.5
2017-Sep-20 19:30N 41°26' E 029°01'0 0.7
2017-Sep-20 18:53N 41°25' E 029°02'0 0.8
2017-Sep-20 18:18N 41°25' E 029°03'1 1.0
2017-Sep-20 17:23N 41°25' E 029°04'0 1.0
2017-Sep-20 16:55N 41°25' E 029°04'2 1.5
2017-Sep-20 15:18N 41°26' E 029°07'1511.2
2017-Sep-20 13:59N 41°39' E 029°16'612.1
2017-Sep-20 13:30N 41°44' E 029°18'612.1
2017-Sep-20 13:00N 41°50' E 029°21'712.0
2017-Sep-20 12:28N 41°56' E 029°23'511.9
2017-Sep-20 12:00N 42°02' E 029°25'611.8
2017-Sep-20 11:30N 42°07' E 029°27'611.8
2017-Sep-20 11:00N 42°13' E 029°29'611.9
2017-Sep-20 10:30N 42°19' E 029°31'812.0
2017-Sep-20 09:51N 42°26' E 029°34'611.9
2017-Sep-20 09:22N 42°32' E 029°37'511.8
2017-Sep-20 08:59N 42°36' E 029°39'811.9
2017-Sep-20 08:21N 42°43' E 029°41'413.1
2017-Sep-20 08:00N 42°48' E 029°43'713.4
2017-Sep-20 07:31N 42°54' E 029°46'713.5
2017-Sep-20 06:59N 43°01' E 029°48'3312.8
2017-Sep-20 04:25N 43°32' E 030°02'3312.4
2017-Sep-20 01:46N 44°04' E 030°14'312.2
2017-Sep-20 01:30N 44°07' E 030°16'612.1
2017-Sep-20 00:58N 44°13' E 030°18'612.1
2017-Sep-20 00:30N 44°19' E 030°20'612.1
2017-Sep-20 00:00N 44°24' E 030°22'612.2
2017-Sep-19 23:30N 44°30' E 030°25'612.2
2017-Sep-19 23:00N 44°36' E 030°27'612.1
2017-Sep-19 22:29N 44°42' E 030°30'612.0
2017-Sep-19 22:00N 44°48' E 030°32'612.1
2017-Sep-19 21:28N 44°54' E 030°34'7612.4
2017-Sep-19 15:23N 46°07' E 031°04'1111.6
2017-Sep-19 14:25N 46°15' E 030°54'512.5
2017-Sep-19 13:59N 46°20' E 030°55'612.4
2017-Sep-19 13:31N 46°26' E 030°55'611.6
2017-Sep-19 13:01N 46°32' E 030°55'5 9.2
2017-Sep-19 12:30N 46°34' E 031°02'4 8.1
2017-Sep-19 12:00N 46°35' E 031°07'610.2
2017-Sep-19 11:27N 46°35' E 031°15'1 0.1
2017-Sep-19 00:12N 46°34' E 031°16'0 0.0
2017-Sep-19 00:00N 46°34' E 031°16'0 0.0
2017-Sep-18 20:54N 46°34' E 031°16'0 0.0
2017-Sep-18 20:30N 46°34' E 031°16'0 0.0
2017-Sep-18 20:00N 46°34' E 031°16'0 0.1
2017-Sep-18 17:36N 46°34' E 031°16'0 0.2
2017-Sep-18 17:24N 46°34' E 031°16'0 0.1
2017-Sep-18 17:00N 46°34' E 031°16'0 0.0
2017-Sep-18 16:27N 46°34' E 031°16'0 0.0
2017-Sep-18 15:57N 46°34' E 031°16'0 0.0
2017-Sep-18 15:27N 46°34' E 031°16'0 0.1
2017-Sep-18 14:27N 46°35' E 031°16'0 0.0
2017-Sep-18 14:00N 46°35' E 031°16'0 0.0
2017-Sep-18 13:24N 46°35' E 031°16'0 0.0
2017-Sep-18 13:00N 46°34' E 031°16'0 0.0
2017-Sep-18 12:24N 46°35' E 031°16'0 0.0
2017-Sep-18 12:00N 46°35' E 031°16'0 0.0
2017-Sep-18 11:27N 46°35' E 031°16'0 0.0
2017-Sep-18 10:45N 46°35' E 031°16'0 0.0
2017-Sep-18 10:30N 46°35' E 031°16'0 0.0
2017-Sep-18 10:00N 46°35' E 031°16'0 0.0
2017-Sep-18 09:30N 46°35' E 031°16'0 0.1
2017-Sep-18 09:00N 46°34' E 031°16'0 0.0
2017-Sep-18 08:27N 46°34' E 031°16'0 0.0
2017-Sep-18 08:00N 46°34' E 031°16'0 0.1
2017-Sep-18 07:03N 46°35' E 031°16'0 0.1
2017-Sep-18 06:54N 46°35' E 031°16'0 0.0
2017-Sep-18 06:30N 46°35' E 031°16'0 0.0
2017-Sep-18 06:00N 46°34' E 031°16'0 0.0
2017-Sep-18 05:30N 46°34' E 031°16'0 0.0
2017-Sep-18 05:00N 46°34' E 031°16'0 0.0
2017-Sep-18 04:30N 46°34' E 031°16'0 0.1
2017-Sep-18 04:00N 46°34' E 031°16'0 0.0
2017-Sep-18 03:30N 46°34' E 031°16'0 0.0
2017-Sep-18 03:00N 46°34' E 031°16'0 0.0
2017-Sep-18 02:30N 46°34' E 031°16'0 0.1
2017-Sep-18 02:00N 46°34' E 031°16'0 0.1
2017-Sep-18 01:30N 46°34' E 031°16'0 0.0
2017-Sep-18 01:00N 46°35' E 031°16'0 0.0
2017-Sep-18 00:30N 46°35' E 031°16'0 0.0
2017-Sep-18 00:00N 46°35' E 031°16'0 0.1
2017-Sep-17 23:30N 46°35' E 031°16'0 0.0
2017-Sep-17 23:00N 46°35' E 031°16'0 0.0
2017-Sep-17 22:30N 46°35' E 031°16'0 0.0
2017-Sep-17 22:00N 46°35' E 031°16'0 0.1
2017-Sep-17 21:30N 46°35' E 031°16'0 0.0
2017-Sep-17 21:00N 46°35' E 031°16'0 0.0
2017-Sep-17 20:30N 46°35' E 031°16'0 0.1
2017-Sep-17 20:00N 46°35' E 031°16'0 0.0
2017-Sep-17 19:30N 46°35' E 031°16'0 0.0
2017-Sep-17 19:00N 46°35' E 031°16'0 0.0
2017-Sep-17 18:28N 46°35' E 031°16'0 0.0
2017-Sep-17 17:58N 46°35' E 031°16'0 0.0
2017-Sep-17 17:28N 46°35' E 031°16'0 0.0
2017-Sep-17 16:58N 46°35' E 031°16'0 0.0
2017-Sep-17 16:28N 46°35' E 031°16'0 0.0
2017-Sep-17 15:58N 46°35' E 031°16'0 0.0
2017-Sep-17 15:28N 46°35' E 031°16'0 0.0
2017-Sep-17 14:52N 46°34' E 031°16'0 0.0
2017-Sep-17 14:19N 46°34' E 031°16'0 0.0
2017-Sep-17 13:52N 46°34' E 031°16'0 0.0
2017-Sep-17 13:25N 46°34' E 031°16'0 0.0
2017-Sep-17 12:58N 46°34' E 031°16'0 0.0
2017-Sep-17 12:28N 46°34' E 031°16'0 0.0
2017-Sep-17 11:58N 46°35' E 031°16'0 0.1
2017-Sep-17 11:28N 46°35' E 031°16'0 0.1
2017-Sep-17 10:58N 46°35' E 031°16'0 0.1
2017-Sep-17 10:28N 46°35' E 031°16'0 0.0
2017-Sep-17 09:58N 46°35' E 031°16'0 0.0
2017-Sep-17 09:28N 46°35' E 031°16'0 0.0
2017-Sep-17 08:58N 46°35' E 031°16'0 0.0
2017-Sep-17 08:28N 46°35' E 031°16'0 0.1
2017-Sep-17 07:58N 46°35' E 031°16'0 0.1
2017-Sep-17 07:28N 46°34' E 031°16'0 0.1
2017-Sep-17 06:58N 46°34' E 031°16'0 0.0
2017-Sep-17 06:28N 46°34' E 031°16'0 0.0
2017-Sep-17 05:58N 46°34' E 031°16'0 0.0
2017-Sep-17 05:28N 46°34' E 031°16'0 0.0
2017-Sep-17 04:49N 46°34' E 031°16'0 0.0
2017-Sep-17 04:19N 46°34' E 031°16'0 0.0
2017-Sep-17 03:58N 46°34' E 031°16'0 0.0
2017-Sep-17 03:28N 46°34' E 031°16'0 0.0
2017-Sep-17 02:58N 46°34' E 031°16'0 0.0
2017-Sep-17 02:28N 46°34' E 031°16'0 0.0
2017-Sep-17 01:55N 46°34' E 031°16'0 0.0
2017-Sep-17 01:28N 46°34' E 031°16'0 0.0
2017-Sep-17 00:58N 46°34' E 031°16'0 0.0
2017-Sep-17 00:28N 46°34' E 031°16'0 0.0
2017-Sep-16 23:55N 46°34' E 031°16'0 0.0
2017-Sep-16 23:25N 46°34' E 031°16'0 0.0
2017-Sep-16 22:55N 46°34' E 031°16'0 0.0
2017-Sep-16 22:25N 46°34' E 031°16'0 0.0
2017-Sep-16 21:55N 46°34' E 031°16'0 0.0
2017-Sep-16 21:25N 46°34' E 031°16'0 0.0
2017-Sep-16 20:58N 46°34' E 031°16'0 0.0
2017-Sep-16 19:53N 46°34' E 031°16'0 0.0
2017-Sep-16 19:24N 46°34' E 031°16'0 0.0
2017-Sep-16 19:00N 46°34' E 031°16'0 0.0
2017-Sep-16 15:30N 46°35' E 031°16'0 0.0
2017-Sep-16 14:59N 46°35' E 031°16'0 0.0
2017-Sep-16 14:30N 46°35' E 031°16'0 0.0
2017-Sep-16 13:59N 46°35' E 031°16'0 0.0
2017-Sep-16 13:27N 46°35' E 031°16'0 0.0
2017-Sep-16 12:57N 46°35' E 031°16'0 0.0
2017-Sep-16 11:36N 46°35' E 031°16'0 0.1
2017-Sep-16 11:29N 46°35' E 031°16'0 0.0
2017-Sep-16 10:53N 46°35' E 031°16'0 0.0
2017-Sep-16 10:30N 46°35' E 031°16'0 0.0
2017-Sep-16 09:56N 46°35' E 031°16'0 0.0
2017-Sep-16 08:35N 46°34' E 031°16'0 0.0
2017-Sep-16 06:51N 46°34' E 031°16'0 0.0
2017-Sep-16 06:21N 46°34' E 031°16'0 0.0
2017-Sep-16 06:00N 46°34' E 031°16'0 0.0
2017-Sep-16 03:06N 46°34' E 031°16'0 0.0
2017-Sep-16 02:54N 46°34' E 031°16'0 0.1
2017-Sep-16 02:29N 46°34' E 031°16'0 0.0
2017-Sep-16 02:00N 46°34' E 031°16'0 0.1
2017-Sep-16 00:42N 46°34' E 031°16'0 0.1
2017-Sep-16 00:29N 46°34' E 031°16'0 0.1
2017-Sep-15 23:53N 46°34' E 031°16'0 0.0
2017-Sep-15 21:53N 46°34' E 031°16'0 0.0
2017-Sep-15 17:51N 46°34' E 031°16'0 0.1
2017-Sep-15 17:29N 46°34' E 031°16'0 0.1
2017-Sep-15 16:59N 46°34' E 031°16'0 0.7
2017-Sep-15 16:30N 46°34' E 031°17'3 6.7
2017-Sep-15 16:00N 46°35' E 031°22'5 9.9
2017-Sep-15 15:30N 46°36' E 031°29'4 9.0
2017-Sep-15 15:01N 46°35' E 031°35'510.3
2017-Sep-15 14:30N 46°36' E 031°43'510.1
2017-Sep-15 14:01N 46°36' E 031°50'5 9.5
2017-Sep-15 13:30N 46°39' E 031°56'5 9.6
2017-Sep-15 13:01N 46°44' E 031°56'5 9.3
2017-Sep-15 12:31N 46°48' E 031°54'510.3
2017-Sep-15 12:01N 46°52' E 031°59'4 8.2
2017-Sep-15 11:31N 46°56' E 032°01'1 2.2
2017-Sep-15 11:01N 46°57' E 031°60'0 0.3
2017-Sep-15 10:28N 46°57' E 031°60'0 0.0
2017-Sep-15 09:58N 46°57' E 031°60'0 0.0
2017-Sep-15 09:28N 46°57' E 031°60'0 0.0
2017-Sep-15 08:58N 46°57' E 031°60'0 0.0
2017-Sep-15 08:28N 46°57' E 031°60'0 0.0
2017-Sep-15 07:58N 46°57' E 031°60'0 0.0
2017-Sep-15 07:28N 46°57' E 031°60'0 0.0
2017-Sep-15 06:58N 46°57' E 031°60'0 0.0
2017-Sep-15 06:28N 46°57' E 031°60'0 0.0
2017-Sep-15 05:58N 46°57' E 031°60'0 0.0
2017-Sep-15 05:28N 46°57' E 031°60'0 0.0
2017-Sep-15 04:58N 46°57' E 031°60'0 0.0
2017-Sep-15 04:28N 46°57' E 031°60'0 0.0
2017-Sep-15 03:58N 46°57' E 031°60'0 0.0
2017-Sep-15 03:28N 46°57' E 031°60'0 0.0
2017-Sep-15 02:58N 46°57' E 031°60'0 0.0
2017-Sep-15 02:28N 46°57' E 031°60'0 0.0
2017-Sep-15 01:58N 46°57' E 031°60'0 0.0
2017-Sep-15 01:28N 46°57' E 031°60'0 0.0
2017-Sep-15 00:58N 46°57' E 031°60'0 0.0
2017-Sep-15 00:28N 46°57' E 031°60'0 0.0
2017-Sep-14 23:58N 46°57' E 031°60'0 0.0
2017-Sep-14 23:28N 46°57' E 031°60'0 0.0
2017-Sep-14 22:58N 46°57' E 031°60'0 0.0
2017-Sep-14 22:28N 46°57' E 031°60'0 0.0
2017-Sep-14 21:58N 46°57' E 031°60'0 0.0
2017-Sep-14 21:28N 46°57' E 031°60'0 0.0
2017-Sep-14 20:55N 46°57' E 031°60'0 0.0
2017-Sep-14 20:28N 46°57' E 031°60'0 0.0
2017-Sep-14 19:58N 46°57' E 031°60'0 0.0
2017-Sep-14 19:28N 46°57' E 031°60'0 0.0
2017-Sep-14 18:58N 46°57' E 031°60'0 0.0
2017-Sep-14 18:28N 46°57' E 031°60'0 0.0
2017-Sep-14 17:58N 46°57' E 031°60'0 0.0
2017-Sep-14 17:25N 46°57' E 031°60'0 0.0
2017-Sep-14 16:58N 46°57' E 031°60'0 0.0
2017-Sep-14 16:28N 46°57' E 031°60'0 0.0
2017-Sep-14 15:58N 46°57' E 031°60'0 0.0
2017-Sep-14 15:28N 46°57' E 031°60'0 0.0
2017-Sep-14 14:58N 46°57' E 031°60'0 0.0
2017-Sep-14 14:28N 46°57' E 031°60'0 0.0
2017-Sep-14 13:58N 46°57' E 031°60'0 0.0
2017-Sep-14 13:28N 46°57' E 031°60'0 0.0
2017-Sep-14 12:58N 46°57' E 031°60'0 0.0
2017-Sep-14 12:28N 46°57' E 031°60'0 0.0
2017-Sep-14 11:58N 46°57' E 031°60'0 0.0
2017-Sep-14 11:28N 46°57' E 031°60'0 0.0
2017-Sep-14 10:52N 46°57' E 031°60'0 0.0
2017-Sep-14 10:25N 46°57' E 031°60'0 0.0
2017-Sep-14 09:58N 46°57' E 031°60'0 0.0
2017-Sep-14 09:28N 46°57' E 031°60'0 0.0
2017-Sep-14 08:55N 46°57' E 031°60'0 0.0
2017-Sep-14 08:28N 46°57' E 031°60'0 0.0
2017-Sep-14 07:58N 46°57' E 031°60'0 0.0
2017-Sep-14 07:28N 46°57' E 031°60'0 0.0
2017-Sep-14 06:58N 46°57' E 031°60'0 0.0
2017-Sep-14 06:28N 46°57' E 031°60'0 0.0
2017-Sep-14 05:58N 46°57' E 031°60'0 0.0
2017-Sep-14 05:28N 46°57' E 031°60'0 0.0
2017-Sep-14 04:58N 46°57' E 031°60'0 0.0
2017-Sep-14 04:28N 46°57' E 031°60'0 0.0
2017-Sep-14 03:58N 46°57' E 031°60'0 0.0
2017-Sep-14 03:25N 46°57' E 031°60'0 0.0
2017-Sep-14 02:58N 46°57' E 031°60'0 0.0
2017-Sep-14 02:28N 46°57' E 031°60'0 0.0
2017-Sep-14 01:58N 46°57' E 031°60'0 0.0
2017-Sep-14 01:28N 46°57' E 031°60'0 0.0
2017-Sep-14 00:58N 46°57' E 031°60'0 0.0
2017-Sep-14 00:28N 46°57' E 031°60'0 0.0
2017-Sep-13 23:58N 46°57' E 031°60'0 0.0
2017-Sep-13 23:28N 46°57' E 031°60'0 0.0
2017-Sep-13 22:58N 46°57' E 031°60'0 0.0
2017-Sep-13 22:28N 46°57' E 031°60'0 0.0
2017-Sep-13 21:58N 46°57' E 031°60'0 0.0
2017-Sep-13 21:28N 46°57' E 031°60'0 0.0
2017-Sep-13 20:58N 46°57' E 031°60'0 0.0
2017-Sep-13 20:28N 46°57' E 031°60'0 0.0
2017-Sep-13 19:58N 46°57' E 031°60'0 0.0
2017-Sep-13 19:28N 46°57' E 031°60'0 0.0
2017-Sep-13 18:55N 46°57' E 031°60'0 0.0
2017-Sep-13 18:28N 46°57' E 031°60'0 0.0
2017-Sep-13 17:58N 46°57' E 031°60'0 0.0
2017-Sep-13 17:28N 46°57' E 031°60'0 0.0
2017-Sep-13 16:58N 46°57' E 031°60'0 0.0
2017-Sep-13 16:28N 46°57' E 031°60'0 0.0
2017-Sep-13 15:55N 46°57' E 031°60'0 0.0
2017-Sep-13 15:28N 46°57' E 031°60'0 0.0
2017-Sep-13 14:58N 46°57' E 031°60'0 0.0
2017-Sep-13 14:28N 46°57' E 031°60'0 0.0
2017-Sep-13 13:58N 46°57' E 031°60'0 0.0
2017-Sep-13 13:28N 46°57' E 031°60'0 0.0
2017-Sep-13 12:58N 46°57' E 031°60'0 0.0
2017-Sep-13 12:28N 46°57' E 031°60'0 0.0
2017-Sep-13 11:58N 46°57' E 031°60'0 0.0
2017-Sep-13 11:28N 46°57' E 031°60'0 0.0
2017-Sep-13 10:58N 46°57' E 031°60'0 0.0
2017-Sep-13 10:28N 46°57' E 031°60'0 0.0
2017-Sep-13 09:58N 46°57' E 031°60'0 0.0
2017-Sep-13 09:25N 46°57' E 031°60'0 0.0
2017-Sep-13 08:58N 46°57' E 031°60'0 0.0
2017-Sep-13 08:28N 46°57' E 031°60'0 0.0
2017-Sep-13 07:58N 46°57' E 031°60'0 0.0
2017-Sep-13 07:28N 46°57' E 031°60'0 0.0
2017-Sep-13 06:58N 46°57' E 031°60'0 0.0
2017-Sep-13 06:28N 46°57' E 031°60'0 0.0
2017-Sep-13 05:58N 46°57' E 031°60'0 0.0
2017-Sep-13 05:28N 46°57' E 031°60'0 0.0
2017-Sep-13 04:58N 46°57' E 031°60'0 0.0
2017-Sep-13 04:28N 46°57' E 031°60'0 0.0
2017-Sep-13 03:58N 46°57' E 031°60'0 0.0
2017-Sep-13 03:28N 46°57' E 031°60'0 0.0
2017-Sep-13 02:58N 46°57' E 031°60'0 0.0
2017-Sep-13 02:28N 46°57' E 031°60'0 0.0
2017-Sep-13 01:58N 46°57' E 031°60'0 0.0
2017-Sep-13 01:28N 46°57' E 031°60'0 0.0
2017-Sep-13 00:58N 46°57' E 031°60'0 0.0
2017-Sep-13 00:28N 46°57' E 031°60'0 0.0
2017-Sep-12 23:58N 46°57' E 031°60'0 0.0
2017-Sep-12 23:28N 46°57' E 031°60'0 0.0
2017-Sep-12 22:58N 46°57' E 031°60'0 0.0
2017-Sep-12 22:28N 46°57' E 031°60'0 0.0
2017-Sep-12 21:58N 46°57' E 031°60'0 0.0
2017-Sep-12 21:28N 46°57' E 031°60'0 0.0
2017-Sep-12 20:58N 46°57' E 031°60'0 0.0
2017-Sep-12 20:28N 46°57' E 031°60'0 0.0
2017-Sep-12 19:58N 46°57' E 031°60'0 0.0
2017-Sep-12 19:28N 46°57' E 031°60'0 0.0
2017-Sep-12 18:58N 46°57' E 031°60'0 0.0
2017-Sep-12 18:28N 46°57' E 031°60'0 0.0
2017-Sep-12 17:58N 46°57' E 031°60'0 0.0
2017-Sep-12 17:28N 46°57' E 031°60'0 0.0
2017-Sep-12 16:58N 46°57' E 031°60'0 0.0
2017-Sep-12 16:28N 46°57' E 031°60'0 0.0
2017-Sep-12 15:58N 46°57' E 031°60'0 0.0
2017-Sep-12 15:28N 46°57' E 031°60'0 0.0
2017-Sep-12 14:58N 46°57' E 031°60'0 0.0
2017-Sep-12 14:28N 46°57' E 031°60'0 0.0
2017-Sep-12 13:58N 46°57' E 031°60'0 0.0
2017-Sep-12 13:28N 46°57' E 031°60'0 0.0
2017-Sep-12 12:58N 46°57' E 031°60'0 0.0
2017-Sep-12 12:28N 46°57' E 031°60'0 0.0
2017-Sep-12 11:58N 46°57' E 031°60'0 0.0
2017-Sep-12 11:28N 46°57' E 031°60'0 0.0
2017-Sep-12 10:58N 46°57' E 031°60'0 0.0
2017-Sep-12 10:28N 46°57' E 031°60'0 0.0
2017-Sep-12 09:58N 46°57' E 031°60'0 0.0
2017-Sep-12 09:28N 46°57' E 031°60'0 0.0
2017-Sep-12 08:58N 46°57' E 031°60'0 0.0
2017-Sep-12 08:28N 46°57' E 031°60'0 0.0
2017-Sep-12 07:58N 46°57' E 031°60'0 0.0
2017-Sep-12 07:28N 46°57' E 031°60'0 0.0
2017-Sep-12 06:58N 46°57' E 031°60'0 0.0
2017-Sep-12 06:28N 46°57' E 031°60'0 0.0
2017-Sep-12 05:58N 46°57' E 031°60'0 0.0
2017-Sep-12 05:28N 46°57' E 031°60'0 0.0
2017-Sep-12 04:58N 46°57' E 031°60'0 0.0
2017-Sep-12 04:28N 46°57' E 031°60'0 0.0
2017-Sep-12 03:58N 46°57' E 031°60'0 0.0
2017-Sep-12 03:28N 46°57' E 031°60'0 0.0
2017-Sep-12 02:58N 46°57' E 031°60'0 0.0
2017-Sep-12 02:28N 46°57' E 031°60'0 0.0
2017-Sep-12 01:58N 46°57' E 031°60'0 0.0
2017-Sep-12 01:28N 46°57' E 031°60'0 0.0
2017-Sep-12 00:58N 46°57' E 031°60'0 0.0
2017-Sep-12 00:28N 46°57' E 031°60'0 0.0
2017-Sep-11 23:58N 46°57' E 031°60'0 0.0
2017-Sep-11 23:28N 46°57' E 031°60'0 0.0
2017-Sep-11 22:58N 46°57' E 031°60'0 0.0
2017-Sep-11 22:28N 46°57' E 031°60'0 0.0
2017-Sep-11 21:58N 46°57' E 031°60'0 0.0
2017-Sep-11 21:28N 46°57' E 031°60'0 0.0
2017-Sep-11 20:58N 46°57' E 031°60'0 0.0
2017-Sep-11 20:28N 46°57' E 031°60'0 0.0
2017-Sep-11 19:58N 46°57' E 031°60'0 0.0
2017-Sep-11 19:28N 46°57' E 031°60'0 0.0
2017-Sep-11 18:58N 46°57' E 031°60'0 0.0
2017-Sep-11 18:28N 46°57' E 031°60'0 0.0
2017-Sep-11 17:58N 46°57' E 031°60'0 0.0
2017-Sep-11 17:28N 46°57' E 031°60'0 0.0
2017-Sep-11 16:55N 46°57' E 031°60'0 0.0
2017-Sep-11 16:28N 46°57' E 031°60'0 0.0
2017-Sep-11 15:58N 46°57' E 031°60'0 0.0
2017-Sep-11 15:28N 46°57' E 031°60'0 0.0
2017-Sep-11 14:58N 46°57' E 031°60'0 0.0
2017-Sep-11 14:28N 46°57' E 031°60'0 0.0
2017-Sep-11 13:58N 46°57' E 031°60'0 0.0
2017-Sep-11 13:25N 46°57' E 031°60'0 0.0
2017-Sep-11 12:58N 46°57' E 031°60'0 0.0
2017-Sep-11 12:28N 46°57' E 031°60'0 0.0
2017-Sep-11 11:58N 46°57' E 031°60'0 0.0
2017-Sep-11 11:28N 46°57' E 031°60'0 0.0
2017-Sep-11 10:58N 46°57' E 031°60'0 0.0
2017-Sep-11 10:28N 46°57' E 031°60'0 0.0
2017-Sep-11 09:58N 46°57' E 031°60'0 0.0
2017-Sep-11 09:28N 46°57' E 031°60'0 0.0
2017-Sep-11 08:58N 46°57' E 031°60'0 0.0
2017-Sep-11 08:28N 46°57' E 031°60'0 0.0
2017-Sep-11 07:58N 46°57' E 031°60'0 0.0
2017-Sep-11 07:28N 46°57' E 031°60'0 0.0
2017-Sep-11 06:58N 46°57' E 031°60'0 0.0
2017-Sep-11 06:28N 46°57' E 031°60'0 0.0
2017-Sep-11 05:58N 46°57' E 031°60'0 0.0
2017-Sep-11 05:28N 46°57' E 031°60'0 0.0
2017-Sep-11 04:58N 46°57' E 031°60'0 0.0
2017-Sep-11 04:28N 46°57' E 031°60'0 0.0
2017-Sep-11 03:58N 46°57' E 031°60'0 0.0
2017-Sep-11 03:28N 46°57' E 031°60'0 0.0
2017-Sep-11 02:58N 46°57' E 031°60'0 0.0
2017-Sep-11 02:28N 46°57' E 031°60'0 0.0
2017-Sep-11 01:58N 46°57' E 031°60'0 0.0
2017-Sep-11 01:28N 46°57' E 031°60'0 0.0
2017-Sep-11 00:58N 46°57' E 031°60'0 0.0
2017-Sep-11 00:28N 46°57' E 031°60'0 0.0
2017-Sep-10 23:58N 46°57' E 031°60'0 0.0
2017-Sep-10 23:28N 46°57' E 031°60'0 0.0
2017-Sep-10 22:58N 46°57' E 031°60'0 0.0
2017-Sep-10 22:28N 46°57' E 031°60'0 0.0
2017-Sep-10 21:58N 46°57' E 031°60'0 0.0
2017-Sep-10 21:28N 46°57' E 031°60'0 0.0
2017-Sep-10 20:58N 46°57' E 031°60'0 0.0
2017-Sep-10 20:28N 46°57' E 031°60'  

Dump ship's entire track history